CYMM

Fort McMurray Airport

Fort McMurray, Alberta, Canada
TAF CYMM 211838Z 2119/2207 26005KT P6SM SCT025 TEMPO 2119/2207 6SM -SN BKN020 BECMG 2204/2206 VRB03KT RMK FCST BASED ON AUTO OBS. NXT FCST BY 220100Z
Issued Valid From Valid To
Jan-21 @ 18:38 UTC
(6 hours ago)
Jan-21 @ 19:00 UTC
(5 hours ago)
Jan-22 @ 07:00 UTC
(in 7 hours)
Jan-21 @ 19:00 to Jan-22 @ 04:00
TAF CYMM 211838Z 2119/2207 26005KT P6SM SCT025
Wind Visibility Clouds
260° at 5 knots Greater than 6 miles
  • Scattered at 2,500' AGL
Temporary Jan-21 @ 19:00 to Jan-22 @ 07:00
TEMPO 2119/2207 6SM -SN BKN020
Visibility Clouds Conditions
6 miles
  • Broken at 2,000' AGL
  • Light Snow
Becoming Jan-22 @ 04:00 to Jan-22 @ 07:00
BECMG 2204/2206 VRB03KT RMK FCST BASED ON AUTO OBS. NXT FCST BY 220100Z
Wind Visibility Clouds
Variable at 3 knots Greater than 6 miles
  • Scattered at 2,500' AGL
TAF CYMM 211838Z 2119/2207 26005KT P6SM SCT025 TEMPO 2119/2207 6SM -SN BKN020 BECMG 2204/2206 VRB03KT RMK FCST BASED ON AUTO OBS. NXT FCST BY 220100Z
Issued Jan-21 @ 18:38 UTC
(6 hours ago)
Valid From Jan-21 @ 19:00 UTC
(5 hours ago)
Valid To Jan-22 @ 07:00 UTC
(in 7 hours)
Jan-21 @ 19:00 - Jan-22 @ 04:00
Wind Visibility
260° at 5 knots Greater than 6 miles
Clouds
  • Scattered at 2,500' AGL
Temporary Jan-21 @ 19:00 - Jan-22 @ 07:00
Clouds
  • Broken at 2,000' AGL
Conditions
  • Light Snow
Becoming Jan-22 @ 04:00 - Jan-22 @ 07:00
Wind Visibility
Variable at 3 knots Greater than 6 miles
Clouds
  • Scattered at 2,500' AGL